Kapolei, HI (96707)

1:52 PM HST on September 18, 2014 (GMT -1000)
Upper Makakilo | Change Station
CLOSE
Current Station
Personal Weather Station
Location: Makakilo City, HI
Elevation: 1060 ft
Nearby Weather Stations

Elev 1060 ft 21.37 °N, 158.09 °W | Updated 9 seconds ago

Overcast
Overcast
77.0 °F
Feels Like 78 °F
N
5.8
Wind Variable Wind from WSW
Gusts 8.1 mph

Today
High -- | Low -- °F
--% Chance of Precip.
Yesterday
High -- | Low -- °F
Precip. -- in
6:20 AM 6:32 PM
Waning Crescent, 23% visible
Pressure 29.96 in
Visibility 10.0 miles
Clouds Overcast 3900 ft
Heat Index 78 °F
Dew Point 72 °F
Humidity 85%
Rainfall 0.09 in
Snow Depth Not available.
UV 0.0 out of 12
Pollen Not available.
Air Quality Not available.
Flu Activity Not available.
METAR PHJR 182253Z VRB05KT 10SM OVC039 28/22 A2994 RMK AO2 SLP144 T02830222

More Conditions Fewer Conditions

Pressure 29.96 in
Visibility 10.0 miles
Clouds Overcast 3900 ft
Heat Index 78 °F
Dew Point 72 °F
Humidity 85%
Rainfall 0.09 in
Snow Depth Not available.
UV 0.0 out of 12
Pollen Not available.
Air Quality Not available.
Flu Activity Not available.
METAR PHJR 182253Z VRB05KT 10SM OVC039 28/22 A2994 RMK AO2 SLP144 T02830222

More Conditions Fewer Conditions

10-Day Weather Forecast

Almanac

Astronomy

Sep. 18, 2014 Rise Set
Actual Time 6:20 AM HST 6:32 PM HST
Civil Twilight 5:57 AM HST 6:54 PM HST
Nautical Twilight 5:32 AM HST 7:20 PM HST
Astronomical Twilight 5:06 AM HST 7:46 PM HST
Moon 1:50 AM HST 3:05 PM HST
Length of Visible Light 12h 56m
Length of Day
12h 12m
Tomorrow will be 1m 12s shorter.
Waning Crescent, 23% of the Moon is Illuminated
Today
Waning Crescent
Sep 24
New
Oct 1
First Quarter
Oct 8
Full
Oct 15
Last Quarter

Today's Extremes

State Highs State Lows

Community

WunderPhotos

Upload Photos

1,754,489 photos uploaded!

WunderBlogs® & News

Nearby

Snow Depth

Station Depth Elevation
No new snow has been reported.

Earthquake Activity

City Distance Mag. Time & Date
No recent earthquake activity has been reported nearby.
Minimum magnitude displayed is 2.5.

Coastal Water Temperatures

Place Temperature
No Stations Reporting

Nearby Weather Stations